Accueil
METAR-TAF:

METAR-TAF

Aéroports :

Aéroport de Grenoble Alpes Isère

Grenoble, France

latitude: 45-22N, longitude: 005-20E, altitude: 384 m

Observation

Le bulletin a été fait il y a 39 minutes, à 13:00 UTC
Vent 6 kt de nord
Température 6°C
Humidité 70%
Pression 1030 hPa
Visibilité 10 km ou plus
pas de nuages en-dessous de 1500 mètres et pas de cumulonimbus.

METAR: LFLS 221300Z AUTO 01006KT CAVOK 06/01 Q1030 NOSIG

Heure: 14:39 (13:39 UTC)

Prévision

Le bulletin a été fait il y a 3 heures et 53 minutes, à 09:46 UTC
Prévision valable du 22 à 09 UTC au 23 à 09 UTC
Vent 5 kt de est/nord-est
Visibilité: 4000 m
brume
Evoluant progressivement
du 22 à 09 UTC au 22 à 11 UTC
Visibilité: 7000 m
Probabilité 40%
du 23 à 00 UTC au 23 à 09 UTC
Visibilité: 4000 m
brume

TAF: LFLS 220946Z 2209/2309 06005KT 4000 BR NSC BECMG 2209/2211 7000 NSW PROB40 2300/2309 4000 BR

Observations et prévisions météorologiques de plus de 4000 aéroports (messages METAR et TAF).

Les stations disponibles sont représentées par des disques jaunes et rouges sur la carte.

Passer la souris dessus pour voir le nom de la station.

Cliquer dessus pour voir les observations et prévisions météorologiques.

Pour changer de carte: cliquez sur les boutons verts avec une croix noire pour zoomer, sur le bouton vert avec un tiret pour effectuer un zoom arrière, ou sur les flèches vertes pour les cartes adjacentes.


METAR-TAF: